Castleside, United Kingdom
Current Conditions -  °F | °C
As of 4:20 PM on Saturday 22 Nov 2014 (Local Time) from EGNT Reporting Station
Few Clouds Few Clouds  
Wind Chill: 50°   Ceiling: Unl
Heat Index: 50°   Visibility: 6mi
Dew Point: 45°   Wind: 5mph
Humidity: 82%   Direction: 190°S
Pressure: 29.83"   Gusts: NA
Location:  54.83°N, 1.88°W
Report Text: EGNT 221620Z 19004KT 160V220 9999 FEW020 10/07 Q1010
Loading
Personal Weather Stations






























Interactive Weather Map New forecast layout! Learn more

10-Day Weather Forecast

Advertisements
Track Severe Weather on mobile